Time;durP1;ratioP1;P1;durP2;ratioP2;P2;SDS_P1;SDS_P2;PMS_P1;PMS_P2;Temp;Humidity;BMP_temperature;BMP_pressure;BME280_temperature;BME280_humidity;BME280_pressure;Samples;Min_cycle;Max_cycle;Signal;HPM_P1;HPM_P2
2023/03/31 00:00:22;;;;;;;;;;;;;;;7.09;100.00;95284.31;10519758;28;2062;-72
2023/03/31 00:05:36;;;;;;;;;;;;;;;7.25;100.00;95275.25;10513781;28;2090;-71
2023/03/31 00:10:41;;;;;;;;;;;;;;;7.22;100.00;95263.22;10515096;28;2001;-71
2023/03/31 00:15:44;;;;;;;;;;;;;;;7.13;100.00;95247.97;10515757;28;2096;-71
2023/03/31 00:20:48;;;;;;;;;;;;;;;7.26;100.00;95239.44;10494502;28;2042;-71
2023/03/31 00:25:50;;;;;;;;;;;;;;;7.41;100.00;95239.44;10512890;28;2086;-73
2023/03/31 00:30:53;;;;;;;;;;;;;;;7.36;100.00;95230.63;10518301;28;2037;-77
2023/03/31 00:35:55;;;;;;;;;;;;;;;7.40;100.00;95221.00;10509953;28;2072;-72
2023/03/31 00:40:58;;;;;;;;;;;;;;;7.57;100.00;95211.66;10516092;28;2007;-69
2023/03/31 00:46:07;;;;;;;;;;;;;;;7.71;100.00;95203.88;10517022;28;2037;-69
2023/03/31 00:51:11;;;;;;;;;;;;;;;7.78;100.00;95183.00;10532327;28;1948;-71
2023/03/31 00:56:14;;;;;;;;;;;;;;;7.85;100.00;95175.50;10511006;28;1954;-71
2023/03/31 01:01:18;;;;;;;;;;;;;;;7.99;100.00;95174.94;10516391;28;1990;-70
2023/03/31 01:06:22;;;;;;;;;;;;;;;8.12;100.00;95169.81;10513979;28;2037;-69
2023/03/31 01:11:26;;;;;;;;;;;;;;;8.13;100.00;95155.34;10512787;28;2020;-69
2023/03/31 01:16:28;;;;;;;;;;;;;;;8.19;100.00;95155.31;10515243;28;2049;-69
2023/03/31 01:21:31;;;;;;;;;;;;;;;8.24;100.00;95142.72;10510150;28;2063;-70
2023/03/31 01:26:37;;;;;;;;;;;;;;;8.24;100.00;95142.72;10505884;28;2263;-72
2023/03/31 01:31:40;;;;;;;;;;;;;;;8.06;100.00;95133.41;10514388;28;2006;-70
2023/03/31 01:36:45;;;;;;;;;;;;;;;7.88;100.00;95125.97;10509814;28;2038;-70
2023/03/31 01:41:49;;;;;;;;;;;;;;;7.75;100.00;95107.81;10512469;28;2078;-70
2023/03/31 01:46:52;;;;;;;;;;;;;;;7.92;100.00;95104.84;10524042;28;2005;-70
2023/03/31 01:51:55;;;;;;;;;;;;;;;8.05;100.00;95098.91;10524140;28;2006;-71
2023/03/31 01:56:57;;;;;;;;;;;;;;;8.15;100.00;95090.03;10529870;28;2042;-72
2023/03/31 02:02:00;;;;;;;;;;;;;;;8.25;100.00;95085.41;10509286;28;2213;-71
2023/03/31 02:07:02;;;;;;;;;;;;;;;8.31;100.00;95072.81;10514137;28;1997;-71
2023/03/31 02:12:04;;;;;;;;;;;;;;;8.33;100.00;95065.28;10516026;28;2245;-72
2023/03/31 02:17:12;;;;;;;;;;;;;;;8.36;100.00;95052.19;10511053;28;2968;-72
2023/03/31 02:22:15;;;;;;;;;;;;;;;8.36;100.00;95054.06;10514645;28;2061;-70
2023/03/31 02:27:17;;;;;;;;;;;;;;;8.42;100.00;95047.59;10508930;28;2077;-71
2023/03/31 02:32:20;;;;;;;;;;;;;;;8.42;100.00;95049.50;10511401;28;2034;-70
2023/03/31 02:37:22;;;;;;;;;;;;;;;8.42;100.00;95047.59;10508048;28;2046;-70
2023/03/31 02:42:26;;;;;;;;;;;;;;;8.47;100.00;95042.22;10508632;28;2139;-71
2023/03/31 02:47:28;;;;;;;;;;;;;;;8.48;100.00;95054.53;10528090;28;2057;-72
2023/03/31 02:52:31;;;;;;;;;;;;;;;8.52;100.00;95049.41;10509075;28;2001;-70
2023/03/31 02:57:34;;;;;;;;;;;;;;;8.51;100.00;95059.31;10506535;28;2076;-70
2023/03/31 03:02:36;;;;;;;;;;;;;;;8.28;100.00;95054.63;10514255;28;2041;-70
2023/03/31 03:07:39;;;;;;;;;;;;;;;8.14;100.00;95033.00;10509197;28;2086;-71
2023/03/31 03:12:41;;;;;;;;;;;;;;;8.05;100.00;95040.81;10511413;28;1907;-72
2023/03/31 03:17:44;;;;;;;;;;;;;;;7.95;100.00;95032.00;10515499;28;2027;-72
2023/03/31 03:22:47;;;;;;;;;;;;;;;7.94;100.00;95038.44;10519696;28;2036;-72
2023/03/31 03:27:51;;;;;;;;;;;;;;;8.03;100.00;95055.56;10506796;28;2093;-72
2023/03/31 03:33:05;;;;;;;;;;;;;;;8.04;100.00;95060.63;10515963;28;2067;-72
2023/03/31 03:38:08;;;;;;;;;;;;;;;8.08;100.00;95067.03;10518431;28;2004;-74
2023/03/31 03:43:11;;;;;;;;;;;;;;;7.97;100.00;95081.53;10517097;28;2164;-77
2023/03/31 03:48:13;;;;;;;;;;;;;;;7.96;100.00;95090.63;10516747;28;2062;-75
2023/03/31 03:53:16;;;;;;;;;;;;;;;7.89;100.00;95083.97;10521767;28;2172;-76
2023/03/31 03:58:18;;;;;;;;;;;;;;;7.76;100.00;95071.97;10514107;28;2050;-78
2023/03/31 04:03:21;;;;;;;;;;;;;;;7.66;100.00;95054.09;10522545;28;2055;-77
2023/03/31 04:08:25;;;;;;;;;;;;;;;7.66;100.00;95037.22;10519531;28;2058;-74
2023/03/31 04:13:28;;;;;;;;;;;;;;;7.70;100.00;95036.41;10521195;28;2095;-76
2023/03/31 04:18:31;;;;;;;;;;;;;;;7.72;100.00;95022.78;10520316;28;2053;-74
2023/03/31 04:23:37;;;;;;;;;;;;;;;7.74;100.00;95017.94;10518208;28;1986;-74
2023/03/31 04:28:41;;;;;;;;;;;;;;;7.73;100.00;95005.63;10521478;28;2080;-73
2023/03/31 04:33:45;;;;;;;;;;;;;;;7.72;100.00;94994.13;10514298;28;2063;-74
2023/03/31 04:38:49;;;;;;;;;;;;;;;7.78;100.00;94981.53;10523972;28;2023;-72
2023/03/31 04:43:56;;;;;;;;;;;;;;;7.81;100.00;94964.94;10520291;28;2065;-72
2023/03/31 04:48:59;;;;;;;;;;;;;;;7.85;100.00;94965.97;10518171;28;1999;-72
2023/03/31 04:54:02;;;;;;;;;;;;;;;7.93;100.00;94967.28;10517160;28;2083;-75
2023/03/31 04:59:04;;;;;;;;;;;;;;;7.78;100.00;94928.03;10512636;28;2057;-72
2023/03/31 05:04:07;;;;;;;;;;;;;;;7.78;100.00;94880.69;10519774;28;1997;-72
2023/03/31 05:09:09;;;;;;;;;;;;;;;7.75;100.00;94853.66;10513267;28;2029;-74
2023/03/31 05:14:13;;;;;;;;;;;;;;;7.76;100.00;94858.75;10527622;28;2063;-77
2023/03/31 05:19:17;;;;;;;;;;;;;;;7.82;100.00;94836.25;10519856;28;2097;-75
2023/03/31 05:24:20;;;;;;;;;;;;;;;7.77;100.00;94812.19;10521179;28;2072;-73
2023/03/31 05:29:22;;;;;;;;;;;;;;;7.72;100.00;94798.84;10515772;28;2074;-72
2023/03/31 05:34:25;;;;;;;;;;;;;;;7.73;100.00;94808.47;10516484;28;2022;-73
2023/03/31 05:39:31;;;;;;;;;;;;;;;7.70;100.00;94789.50;10510588;28;2137;-72
2023/03/31 05:44:34;;;;;;;;;;;;;;;7.76;100.00;94758.94;10509557;28;2017;-73
2023/03/31 05:49:37;;;;;;;;;;;;;;;7.78;100.00;94741.56;10510008;28;2002;-74
2023/03/31 05:54:40;;;;;;;;;;;;;;;7.92;100.00;94727.53;10517360;28;2135;-72
2023/03/31 05:59:43;;;;;;;;;;;;;;;8.11;100.00;94713.16;10522739;28;2066;-71
2023/03/31 06:04:45;;;;;;;;;;;;;;;8.22;100.00;94703.13;10507226;28;2110;-72
2023/03/31 06:09:48;;;;;;;;;;;;;;;8.38;100.00;94682.34;10506879;28;2151;-72
2023/03/31 06:14:50;;;;;;;;;;;;;;;8.81;100.00;94677.78;10508683;28;2058;-72
2023/03/31 06:19:53;;;;;;;;;;;;;;;8.87;100.00;94651.72;10511076;28;1981;-72
2023/03/31 06:24:56;;;;;;;;;;;;;;;8.79;100.00;94634.44;10507940;28;2054;-72
2023/03/31 06:29:59;;;;;;;;;;;;;;;8.82;100.00;94619.63;10500915;28;1967;-71
2023/03/31 06:35:02;;;;;;;;;;;;;;;9.19;100.00;94624.97;10512153;28;2076;-75
2023/03/31 06:40:06;;;;;;;;;;;;;;;9.49;100.00;94601.44;10516108;28;2141;-73
2023/03/31 06:45:08;;;;;;;;;;;;;;;9.74;100.00;94609.03;10525650;28;2062;-76
2023/03/31 06:50:10;;;;;;;;;;;;;;;9.74;100.00;94592.91;10518738;28;2039;-73
2023/03/31 06:55:14;;;;;;;;;;;;;;;9.82;100.00;94591.44;10506700;28;2144;-72
2023/03/31 07:00:27;;;;;;;;;;;;;;;9.82;100.00;94598.69;10517860;28;2115;-75
2023/03/31 07:05:35;;;;;;;;;;;;;;;9.62;100.00;94622.13;10512519;28;2085;-73
2023/03/31 07:10:38;;;;;;;;;;;;;;;9.61;100.00;94679.56;10500728;28;2036;-75
2023/03/31 07:15:40;;;;;;;;;;;;;;;9.30;100.00;94738.25;10510615;28;2018;-75
2023/03/31 07:20:43;;;;;;;;;;;;;;;8.94;100.00;94727.19;10515440;28;2442;-75
2023/03/31 07:25:46;;;;;;;;;;;;;;;8.61;100.00;94742.34;10516379;28;2057;-74
2023/03/31 07:30:48;;;;;;;;;;;;;;;8.52;100.00;94770.84;10512683;28;2083;-76
2023/03/31 07:36:01;;;;;;;;;;;;;;;8.49;100.00;94761.50;10515349;28;1994;-74
2023/03/31 07:41:14;;;;;;;;;;;;;;;8.51;100.00;94726.41;10483272;28;2089;-77
2023/03/31 07:46:17;;;;;;;;;;;;;;;8.61;100.00;94705.66;10513654;28;2179;-76
2023/03/31 07:51:20;;;;;;;;;;;;;;;8.63;100.00;94682.03;10510825;28;2158;-76
2023/03/31 07:56:22;;;;;;;;;;;;;;;8.70;100.00;94664.81;10518479;28;2078;-76
2023/03/31 08:01:27;;;;;;;;;;;;;;;8.84;100.00;94645.06;10520662;28;1983;-76
2023/03/31 08:06:30;;;;;;;;;;;;;;;9.13;100.00;94628.81;10524527;28;2035;-74
2023/03/31 08:11:33;;;;;;;;;;;;;;;9.59;100.00;94600.44;10529935;28;2075;-75
2023/03/31 08:16:35;;;;;;;;;;;;;;;9.92;100.00;94593.13;10504643;28;2010;-74
2023/03/31 08:21:43;;;;;;;;;;;;;;;9.79;100.00;94592.00;10500227;28;2066;-74
2023/03/31 08:26:46;;;;;;;;;;;;;;;9.74;100.00;94590.25;10502815;28;1992;-75
2023/03/31 08:31:58;;;;;;;;;;;;;;;10.00;100.00;94579.00;10525871;28;2027;-75
2023/03/31 08:37:01;;;;;;;;;;;;;;;10.15;100.00;94554.53;10497237;28;2125;-74
2023/03/31 08:42:07;;;;;;;;;;;;;;;10.33;100.00;94560.13;10517263;28;2027;-74
2023/03/31 08:47:13;;;;;;;;;;;;;;;10.38;100.00;94570.75;10515619;28;2118;-74
2023/03/31 08:52:16;;;;;;;;;;;;;;;10.20;100.00;94610.03;10509702;28;2043;-75
2023/03/31 08:57:19;;;;;;;;;;;;;;;9.81;100.00;94630.09;10514453;28;2232;-71
2023/03/31 09:02:22;;;;;;;;;;;;;;;9.82;100.00;94641.63;10498799;28;2184;-74
2023/03/31 09:07:25;;;;;;;;;;;;;;;10.05;100.00;94624.53;10517437;28;2291;-75
2023/03/31 09:12:28;;;;;;;;;;;;;;;10.26;100.00;94604.28;10519152;28;2045;-75
2023/03/31 09:17:31;;;;;;;;;;;;;;;10.39;100.00;94609.94;10510977;28;2112;-76
2023/03/31 09:22:35;;;;;;;;;;;;;;;10.80;100.00;94591.03;10510397;28;2104;-74
2023/03/31 09:27:37;;;;;;;;;;;;;;;11.55;100.00;94578.75;10514324;28;2083;-74
2023/03/31 09:32:40;;;;;;;;;;;;;;;11.76;100.00;94558.28;10508334;28;2174;-74
2023/03/31 09:37:42;;;;;;;;;;;;;;;12.04;100.00;94548.13;10505463;28;2063;-73
2023/03/31 09:42:45;;;;;;;;;;;;;;;12.99;100.00;94529.38;10512858;28;2090;-73
2023/03/31 09:47:47;;;;;;;;;;;;;;;12.61;100.00;94517.66;10513351;28;2046;-74
2023/03/31 09:52:50;;;;;;;;;;;;;;;12.34;100.00;94514.13;10506228;28;2134;-76
2023/03/31 09:57:53;;;;;;;;;;;;;;;12.40;100.00;94507.47;10526267;27;2054;-74
2023/03/31 10:02:55;;;;;;;;;;;;;;;12.37;100.00;94526.97;10508642;28;2177;-76
2023/03/31 10:07:58;;;;;;;;;;;;;;;12.32;100.00;94516.34;10512024;28;2113;-76
2023/03/31 10:13:01;;;;;;;;;;;;;;;12.27;100.00;94492.22;10513124;28;2070;-76
2023/03/31 10:18:03;;;;;;;;;;;;;;;12.67;100.00;94484.03;10511795;28;2067;-76
2023/03/31 10:23:06;;;;;;;;;;;;;;;13.06;100.00;94469.53;10510013;28;2109;-77
2023/03/31 10:28:09;;;;;;;;;;;;;;;13.13;100.00;94458.25;10509005;28;2031;-76
2023/03/31 10:33:11;;;;;;;;;;;;;;;13.79;100.00;94458.66;10509193;28;2012;-75
2023/03/31 10:38:24;;;;;;;;;;;;;;;14.72;100.00;94429.75;10512981;28;2082;-74
2023/03/31 10:43:26;;;;;;;;;;;;;;;15.20;100.00;94423.69;10503706;28;2069;-75
2023/03/31 10:48:29;;;;;;;;;;;;;;;15.07;100.00;94431.00;10506572;28;2061;-76
2023/03/31 10:53:31;;;;;;;;;;;;;;;15.02;100.00;94422.31;10508063;28;2046;-73
2023/03/31 10:58:34;;;;;;;;;;;;;;;14.43;100.00;94401.66;10488356;28;2249;-74
2023/03/31 11:03:37;;;;;;;;;;;;;;;14.78;100.00;94379.75;10513321;28;2051;-75
2023/03/31 11:08:39;;;;;;;;;;;;;;;14.29;100.00;94385.72;10509958;28;2082;-73
2023/03/31 11:13:41;;;;;;;;;;;;;;;14.22;100.00;94369.25;10491089;28;2092;-73
2023/03/31 11:18:45;;;;;;;;;;;;;;;13.85;100.00;94387.13;10506258;28;2147;-74
2023/03/31 11:23:48;;;;;;;;;;;;;;;12.98;100.00;94473.84;10513131;28;1969;-73
2023/03/31 11:28:50;;;;;;;;;;;;;;;11.25;100.00;94524.63;10506162;28;2043;-74
2023/03/31 11:33:53;;;;;;;;;;;;;;;10.02;100.00;94448.75;10507073;28;2434;-74
2023/03/31 11:39:08;;;;;;;;;;;;;;;10.00;100.00;94471.63;10517434;28;2054;-74
2023/03/31 11:44:11;;;;;;;;;;;;;;;10.51;100.00;94459.78;10516989;28;2092;-77
2023/03/31 11:49:16;;;;;;;;;;;;;;;10.89;100.00;94390.31;10515351;28;2107;-76
2023/03/31 11:54:19;;;;;;;;;;;;;;;11.48;100.00;94384.66;10513495;28;2087;-74
2023/03/31 11:59:22;;;;;;;;;;;;;;;11.54;100.00;94373.44;10508661;28;2050;-76
2023/03/31 12:04:24;;;;;;;;;;;;;;;11.75;100.00;94359.38;10510862;28;2075;-76
2023/03/31 12:09:27;;;;;;;;;;;;;;;12.21;100.00;94306.81;10513102;28;2091;-78
2023/03/31 12:14:29;;;;;;;;;;;;;;;12.72;100.00;94303.19;10512465;28;2186;-75
2023/03/31 12:19:32;;;;;;;;;;;;;;;13.21;100.00;94303.66;10514939;28;2040;-78
2023/03/31 12:24:35;;;;;;;;;;;;;;;13.51;100.00;94305.25;10520356;28;1993;-78
2023/03/31 12:29:37;;;;;;;;;;;;;;;13.58;100.00;94306.63;10519750;28;2049;-78
2023/03/31 12:34:50;;;;;;;;;;;;;;;13.37;100.00;94304.69;10518561;28;2076;-77
2023/03/31 12:39:52;;;;;;;;;;;;;;;13.19;100.00;94295.88;10512502;28;2092;-78
2023/03/31 12:44:55;;;;;;;;;;;;;;;13.17;100.00;94300.81;10514984;28;2260;-75
2023/03/31 12:49:58;;;;;;;;;;;;;;;13.28;100.00;94320.13;10515358;28;2020;-77
2023/03/31 12:55:00;;;;;;;;;;;;;;;13.10;100.00;94321.28;10517215;28;2086;-77
2023/03/31 13:00:07;;;;;;;;;;;;;;;13.31;100.00;94308.69;10515256;28;2017;-78
2023/03/31 13:05:09;;;;;;;;;;;;;;;13.62;100.00;94315.66;10519106;28;1935;-78
2023/03/31 13:10:13;;;;;;;;;;;;;;;13.49;100.00;94299.38;10517141;28;1942;-77
2023/03/31 13:15:15;;;;;;;;;;;;;;;12.99;100.00;94308.19;10519712;28;1939;-77
2023/03/31 13:20:18;;;;;;;;;;;;;;;12.52;100.00;94322.75;10509994;28;2091;-76
2023/03/31 13:25:24;;;;;;;;;;;;;;;12.10;100.00;94255.19;10510229;28;1967;-76
2023/03/31 13:30:27;;;;;;;;;;;;;;;12.27;100.00;94222.81;10514337;28;1966;-76
2023/03/31 13:35:30;;;;;;;;;;;;;;;12.36;100.00;94282.06;10508352;28;2244;-77
2023/03/31 13:40:33;;;;;;;;;;;;;;;12.41;100.00;94263.84;10508989;28;1969;-76
2023/03/31 13:45:36;;;;;;;;;;;;;;;12.84;94.56;94262.88;10509341;28;1940;-73
2023/03/31 13:50:38;;;;;;;;;;;;;;;13.23;91.37;94290.63;10505085;28;2206;-74
2023/03/31 13:55:41;;;;;;;;;;;;;;;13.44;91.70;94290.69;10508142;28;2114;-73
2023/03/31 14:00:44;;;;;;;;;;;;;;;13.34;91.68;94305.34;10514171;28;1983;-74
2023/03/31 14:05:47;;;;;;;;;;;;;;;12.68;100.00;94302.28;10511694;28;1965;-73
2023/03/31 14:10:49;;;;;;;;;;;;;;;12.42;100.00;94284.28;10505270;28;1997;-74
2023/03/31 14:15:52;;;;;;;;;;;;;;;12.29;100.00;94290.66;10488138;28;2179;-74
2023/03/31 14:20:56;;;;;;;;;;;;;;;12.34;100.00;94309.34;10508222;28;2067;-70
2023/03/31 14:26:08;;;;;;;;;;;;;;;12.61;100.00;94294.69;10513930;28;2110;-72
2023/03/31 14:31:11;;;;;;;;;;;;;;;12.76;100.00;94317.63;10513930;28;2074;-71
2023/03/31 14:36:18;;;;;;;;;;;;;;;12.53;100.00;94322.44;10513102;28;1989;-72
2023/03/31 14:41:28;;;;;;;;;;;;;;;12.10;100.00;94327.91;10510136;28;2170;-72
2023/03/31 14:46:41;;;;;;;;;;;;;;;10.06;100.00;94389.09;10514042;28;1965;-74
2023/03/31 14:51:44;;;;;;;;;;;;;;;8.76;100.00;94409.13;10512784;28;1959;-74
2023/03/31 14:56:47;;;;;;;;;;;;;;;8.42;100.00;94410.25;10496793;28;2117;-75
2023/03/31 15:01:50;;;;;;;;;;;;;;;7.95;100.00;94333.59;10510173;28;1986;-77
2023/03/31 15:07:03;;;;;;;;;;;;;;;8.06;100.00;94346.53;10511847;28;2136;-77
2023/03/31 15:12:16;;;;;;;;;;;;;;;9.16;100.00;94314.56;10496872;28;2196;-77
2023/03/31 15:17:18;;;;;;;;;;;;;;;9.58;100.00;94291.13;10508690;28;2135;-74
2023/03/31 15:22:31;;;;;;;;;;;;;;;9.45;100.00;94300.00;10506200;28;2136;-73
2023/03/31 15:27:41;;;;;;;;;;;;;;;9.45;100.00;94289.28;10503914;28;2113;-72
2023/03/31 15:32:44;;;;;;;;;;;;;;;9.48;100.00;94278.75;10507499;28;2023;-72
2023/03/31 15:37:47;;;;;;;;;;;;;;;9.69;100.00;94272.91;10504781;28;1923;-74
2023/03/31 15:42:50;;;;;;;;;;;;;;;9.87;100.00;94285.38;10504288;28;1978;-73
2023/03/31 15:48:13;;;;;;;;;;;;;;;9.86;100.00;94280.28;10508239;28;2148;-75
2023/03/31 15:53:16;;;;;;;;;;;;;;;10.12;100.00;94291.22;10492864;28;2046;-74
2023/03/31 15:58:18;;;;;;;;;;;;;;;10.32;100.00;94281.88;10497570;28;2066;-74
2023/03/31 16:03:22;;;;;;;;;;;;;;;10.38;100.00;94278.75;10511909;28;2129;-75
2023/03/31 16:08:25;;;;;;;;;;;;;;;10.59;100.00;94287.06;10511178;28;2015;-74
2023/03/31 16:13:38;;;;;;;;;;;;;;;10.70;100.00;94274.94;10510355;28;1974;-73
2023/03/31 16:18:40;;;;;;;;;;;;;;;10.81;100.00;94265.50;10513747;28;2215;-73
2023/03/31 16:23:44;;;;;;;;;;;;;;;10.76;100.00;94268.34;10516453;28;2034;-73
2023/03/31 16:28:47;;;;;;;;;;;;;;;10.61;100.00;94276.78;10516236;28;2203;-73
2023/03/31 16:33:50;;;;;;;;;;;;;;;10.63;100.00;94274.59;10515461;28;2121;-74
2023/03/31 16:38:56;;;;;;;;;;;;;;;10.39;100.00;94282.22;10519206;28;2008;-73
2023/03/31 16:44:00;;;;;;;;;;;;;;;10.28;100.00;94293.22;10515990;28;2114;-73
2023/03/31 16:49:03;;;;;;;;;;;;;;;10.35;100.00;94316.16;10496967;28;2091;-75
2023/03/31 16:54:06;;;;;;;;;;;;;;;10.38;100.00;94326.31;10519286;28;2034;-73
2023/03/31 16:59:09;;;;;;;;;;;;;;;10.09;100.00;94373.16;10512048;28;1973;-77
2023/03/31 17:04:12;;;;;;;;;;;;;;;8.39;100.00;94438.38;10520980;28;2028;-73
2023/03/31 17:09:15;;;;;;;;;;;;;;;7.63;100.00;94438.66;10512480;28;2123;-74
2023/03/31 17:14:19;;;;;;;;;;;;;;;7.22;100.00;94417.78;10518712;28;1979;-77
2023/03/31 17:19:25;;;;;;;;;;;;;;;7.05;100.00;94424.34;10514747;28;2062;-75
2023/03/31 17:24:28;;;;;;;;;;;;;;;7.09;100.00;94421.13;10511804;28;2092;-78
2023/03/31 17:29:31;;;;;;;;;;;;;;;7.04;100.00;94421.97;10513713;28;2090;-78
2023/03/31 17:34:34;;;;;;;;;;;;;;;6.93;100.00;94445.31;10519314;28;1963;-79
2023/03/31 17:39:36;;;;;;;;;;;;;;;6.83;100.00;94432.09;10492756;28;2112;-77
2023/03/31 17:44:39;;;;;;;;;;;;;;;6.81;100.00;94428.09;10520216;28;1980;-76
2023/03/31 17:49:42;;;;;;;;;;;;;;;6.82;100.00;94435.84;10510340;28;2185;-77
2023/03/31 17:54:45;;;;;;;;;;;;;;;6.97;100.00;94427.66;10519032;28;2171;-77
2023/03/31 17:59:50;;;;;;;;;;;;;;;7.10;100.00;94412.03;10513773;28;1927;-75
2023/03/31 18:04:54;;;;;;;;;;;;;;;7.17;100.00;94428.50;10517941;28;2122;-75
2023/03/31 18:09:56;;;;;;;;;;;;;;;7.15;100.00;94444.84;10512261;28;1967;-75
2023/03/31 18:14:58;;;;;;;;;;;;;;;7.10;100.00;94450.22;10509563;28;2207;-73
2023/03/31 18:20:01;;;;;;;;;;;;;;;7.07;100.00;94458.84;10508986;28;2145;-74
2023/03/31 18:25:04;;;;;;;;;;;;;;;6.98;100.00;94466.66;10514456;28;2074;-74
2023/03/31 18:30:06;;;;;;;;;;;;;;;6.84;100.00;94460.38;10507210;28;2113;-76
2023/03/31 18:35:09;;;;;;;;;;;;;;;6.83;100.00;94474.81;10513226;28;1950;-73
2023/03/31 18:40:13;;;;;;;;;;;;;;;6.88;100.00;94471.31;10509431;28;2181;-75
2023/03/31 18:45:16;;;;;;;;;;;;;;;6.84;100.00;94480.97;10510378;28;2150;-74
2023/03/31 18:50:20;;;;;;;;;;;;;;;6.75;100.00;94476.22;10512521;28;1973;-76
2023/03/31 18:55:23;;;;;;;;;;;;;;;6.66;100.00;94479.78;10509429;28;2228;-75
2023/03/31 19:00:30;;;;;;;;;;;;;;;6.63;100.00;94477.69;10510283;28;1974;-75
2023/03/31 19:05:33;;;;;;;;;;;;;;;6.62;100.00;94478.75;10510580;28;2315;-76
2023/03/31 19:10:36;;;;;;;;;;;;;;;6.59;100.00;94476.63;10507239;28;2187;-75
2023/03/31 19:15:39;;;;;;;;;;;;;;;6.57;100.00;94479.59;10509613;28;1963;-78
2023/03/31 19:20:41;;;;;;;;;;;;;;;6.60;100.00;94478.22;10515502;28;2222;-74
2023/03/31 19:25:45;;;;;;;;;;;;;;;6.63;100.00;94465.13;10514386;28;2011;-75
2023/03/31 19:30:47;;;;;;;;;;;;;;;6.62;100.00;94463.53;10511581;28;1957;-75
2023/03/31 19:35:50;;;;;;;;;;;;;;;6.62;100.00;94457.41;10508482;28;2014;-74
2023/03/31 19:40:53;;;;;;;;;;;;;;;6.63;100.00;94449.09;10513485;28;2014;-75
2023/03/31 19:45:56;;;;;;;;;;;;;;;6.67;100.00;94446.66;10502196;28;2191;-74
2023/03/31 19:51:02;;;;;;;;;;;;;;;6.66;100.00;94431.72;10505043;28;1975;-74
2023/03/31 19:56:06;;;;;;;;;;;;;;;6.77;100.00;94417.97;10511253;28;2082;-74
2023/03/31 20:01:11;;;;;;;;;;;;;;;6.81;100.00;94412.88;10492903;28;2085;-75
2023/03/31 20:06:14;;;;;;;;;;;;;;;6.79;100.00;94412.34;10517692;28;1969;-75
2023/03/31 20:11:16;;;;;;;;;;;;;;;6.83;100.00;94415.28;10517337;28;2001;-75
2023/03/31 20:16:19;;;;;;;;;;;;;;;6.86;100.00;94414.69;10520936;28;2047;-74
2023/03/31 20:21:22;;;;;;;;;;;;;;;6.86;100.00;94404.00;10530529;28;2043;-75
2023/03/31 20:26:25;;;;;;;;;;;;;;;6.94;100.00;94408.75;10524227;28;1955;-73
2023/03/31 20:31:27;;;;;;;;;;;;;;;7.01;100.00;94412.66;10521374;28;2017;-75
2023/03/31 20:36:30;;;;;;;;;;;;;;;7.02;100.00;94403.56;10510033;28;2141;-74
2023/03/31 20:41:39;;;;;;;;;;;;;;;7.10;100.00;94399.47;10515248;28;2118;-74
2023/03/31 20:46:42;;;;;;;;;;;;;;;7.13;100.00;94390.09;10515515;28;2140;-76
2023/03/31 20:51:45;;;;;;;;;;;;;;;7.12;100.00;94396.50;10516622;28;2006;-74
2023/03/31 20:56:49;;;;;;;;;;;;;;;7.11;100.00;94410.94;10520040;28;2022;-73
2023/03/31 21:01:53;;;;;;;;;;;;;;;7.17;100.00;94404.47;10513006;28;1979;-74
2023/03/31 21:06:55;;;;;;;;;;;;;;;7.32;100.00;94406.97;10513171;28;1991;-73
2023/03/31 21:11:59;;;;;;;;;;;;;;;7.16;100.00;94416.25;10515134;28;2019;-74
2023/03/31 21:17:02;;;;;;;;;;;;;;;7.27;100.00;94426.53;10517116;28;1965;-77
2023/03/31 21:22:05;;;;;;;;;;;;;;;7.35;100.00;94433.13;10515438;28;2071;-72
2023/03/31 21:27:07;;;;;;;;;;;;;;;7.41;100.00;94420.50;10518791;28;2018;-72
2023/03/31 21:32:10;;;;;;;;;;;;;;;7.30;100.00;94427.81;10523995;28;1950;-73
2023/03/31 21:37:12;;;;;;;;;;;;;;;7.25;100.00;94427.88;10515196;28;1946;-72
2023/03/31 21:42:16;;;;;;;;;;;;;;;7.28;100.00;94430.00;10515042;28;1987;-73
2023/03/31 21:47:18;;;;;;;;;;;;;;;7.30;100.00;94435.84;10520983;28;1970;-75
2023/03/31 21:52:30;;;;;;;;;;;;;;;7.38;100.00;94445.09;10516411;28;1936;-71
2023/03/31 21:57:36;;;;;;;;;;;;;;;7.28;100.00;94440.69;10513395;28;2018;-72
2023/03/31 22:02:39;;;;;;;;;;;;;;;7.26;100.00;94440.19;10514118;28;1989;-75
2023/03/31 22:07:41;;;;;;;;;;;;;;;7.21;100.00;94438.38;10514584;28;2082;-72
2023/03/31 22:12:44;;;;;;;;;;;;;;;7.21;100.00;94446.38;10512313;28;1961;-73
2023/03/31 22:17:47;;;;;;;;;;;;;;;7.16;100.00;94445.63;10510130;28;2066;-74
2023/03/31 22:22:49;;;;;;;;;;;;;;;7.15;100.00;94444.06;10518391;28;1992;-74
2023/03/31 22:27:52;;;;;;;;;;;;;;;7.20;100.00;94447.47;10516360;28;1953;-75
2023/03/31 22:32:54;;;;;;;;;;;;;;;7.23;100.00;94454.09;10511513;28;2188;-74
2023/03/31 22:37:57;;;;;;;;;;;;;;;7.23;100.00;94462.91;10509788;28;2024;-74
2023/03/31 22:43:00;;;;;;;;;;;;;;;7.21;100.00;94458.94;10517507;28;2160;-73
2023/03/31 22:48:02;;;;;;;;;;;;;;;7.22;100.00;94465.88;10513140;28;2077;-75
2023/03/31 22:53:05;;;;;;;;;;;;;;;7.38;100.00;94469.16;10515678;28;1974;-72
2023/03/31 22:58:08;;;;;;;;;;;;;;;7.38;100.00;94459.28;10515715;28;1995;-74
2023/03/31 23:03:10;;;;;;;;;;;;;;;7.39;100.00;94468.91;10520137;28;1975;-74
2023/03/31 23:08:13;;;;;;;;;;;;;;;7.44;100.00;94455.44;10512010;28;1967;-72
2023/03/31 23:13:16;;;;;;;;;;;;;;;7.42;100.00;94454.94;10513315;28;2113;-74
2023/03/31 23:18:19;;;;;;;;;;;;;;;7.32;100.00;94450.53;10515505;28;2155;-73
2023/03/31 23:23:23;;;;;;;;;;;;;;;7.30;100.00;94430.50;10516848;28;1931;-72
2023/03/31 23:28:25;;;;;;;;;;;;;;;7.29;100.00;94439.59;10518272;28;1951;-73
2023/03/31 23:33:28;;;;;;;;;;;;;;;7.27;100.00;94442.56;10531693;28;2136;-73
2023/03/31 23:38:31;;;;;;;;;;;;;;;7.29;100.00;94451.09;10530408;28;1721;-73
2023/03/31 23:43:34;;;;;;;;;;;;;;;7.25;100.00;94454.59;10531959;28;2047;-73
2023/03/31 23:48:36;;;;;;;;;;;;;;;7.21;100.00;94449.06;10525875;28;1963;-72
2023/03/31 23:53:39;;;;;;;;;;;;;;;7.14;100.00;94463.84;10515056;28;2011;-73
2023/03/31 23:58:43;;;;;;;;;;;;;;;7.12;100.00;94447.28;10523794;28;1899;-72
